createdAt,value
2023-03-25T00:01:26.003Z,98564.94
2023-03-25T00:03:53.588Z,98570.84
2023-03-25T00:06:21.137Z,98559.81
2023-03-25T00:08:48.788Z,98561.69
2023-03-25T00:11:16.285Z,98557.53
2023-03-25T00:13:44.960Z,98560.50
2023-03-25T00:16:12.235Z,98564.53
2023-03-25T00:18:41.121Z,98546.22
2023-03-25T00:21:12.077Z,98546.44
2023-03-25T00:23:40.635Z,98545.88
2023-03-25T00:26:10.364Z,98540.63
2023-03-25T00:28:39.152Z,98549.66
2023-03-25T00:31:13.816Z,98538.22
2023-03-25T00:33:44.616Z,98543.94
2023-03-25T00:36:13.957Z,98538.59
2023-03-25T00:38:43.848Z,98556.66
2023-03-25T00:41:26.087Z,98539.97
2023-03-25T00:43:56.477Z,98542.66
2023-03-25T00:46:27.321Z,98541.13
2023-03-25T00:48:57.577Z,98537.91
2023-03-25T00:51:26.282Z,98537.09
2023-03-25T00:53:56.082Z,98537.09
2023-03-25T00:56:24.724Z,98538.84
2023-03-25T00:58:52.920Z,98535.19
2023-03-25T01:01:27.692Z,98539.28
2023-03-25T01:03:59.519Z,98535.41
2023-03-25T01:06:32.817Z,98525.16
2023-03-25T01:09:01.829Z,98529.56
2023-03-25T01:11:35.039Z,98545.25
2023-03-25T01:14:04.605Z,98536.81
2023-03-25T01:16:32.710Z,98542.34
2023-03-25T01:18:59.972Z,98548.63
2023-03-25T01:21:27.649Z,98538.91
2023-03-25T01:23:56.012Z,98546.03
2023-03-25T01:26:23.487Z,98547.38
2023-03-25T01:28:52.314Z,98536.84
2023-03-25T01:31:20.359Z,98535.63
2023-03-25T01:33:49.596Z,98533.25
2023-03-25T01:36:16.921Z,98524.56
2023-03-25T01:38:44.297Z,98531.47
2023-03-25T01:41:12.998Z,98518.19
2023-03-25T01:43:40.339Z,98520.13
2023-03-25T01:46:17.568Z,98518.00
2023-03-25T01:48:45.554Z,98522.97
2023-03-25T01:51:17.460Z,98525.38
2023-03-25T01:53:45.709Z,98522.66
2023-03-25T01:56:20.947Z,98516.34
2023-03-25T01:58:53.072Z,98516.53
2023-03-25T02:01:22.573Z,98521.81
2023-03-25T02:04:03.470Z,98521.28
2023-03-25T02:06:45.367Z,98513.03
2023-03-25T02:09:16.794Z,98515.84
2023-03-25T02:11:43.929Z,98519.19
2023-03-25T02:14:15.779Z,98521.81
2023-03-25T02:16:54.527Z,98518.59
2023-03-25T02:19:37.347Z,98512.50
2023-03-25T02:22:38.160Z,98510.00
2023-03-25T02:25:21.639Z,98513.09
2023-03-25T02:28:26.052Z,98523.22
2023-03-25T02:31:08.581Z,98523.91
2023-03-25T02:34:10.273Z,98517.63
2023-03-25T02:36:52.733Z,98514.91
2023-03-25T02:40:01.057Z,98511.81
2023-03-25T02:42:38.436Z,98515.78
2023-03-25T02:45:21.288Z,98509.44
2023-03-25T02:48:28.409Z,98506.06
2023-03-25T02:50:58.770Z,98512.34
2023-03-25T02:53:34.151Z,98507.41
2023-03-25T02:56:06.563Z,98509.94
2023-03-25T02:58:34.408Z,98512.88
2023-03-25T03:01:02.794Z,98509.47
2023-03-25T03:03:30.277Z,98516.09
2023-03-25T03:06:01.079Z,98511.50
2023-03-25T03:08:54.345Z,98518.47
2023-03-25T03:11:43.871Z,98518.31
2023-03-25T03:14:23.546Z,98520.09
2023-03-25T03:17:18.576Z,98527.41
2023-03-25T03:19:59.321Z,98532.09
2023-03-25T03:22:34.798Z,98526.06
2023-03-25T03:25:28.584Z,98528.88
2023-03-25T03:28:00.485Z,98524.78
2023-03-25T03:30:39.565Z,98520.00
2023-03-25T03:33:13.758Z,98514.56
2023-03-25T03:36:06.912Z,98522.41
2023-03-25T03:38:40.585Z,98514.72
2023-03-25T03:41:10.056Z,98526.25
2023-03-25T03:43:47.638Z,98538.22
2023-03-25T03:46:46.574Z,98546.44
2023-03-25T03:49:18.193Z,98547.97
2023-03-25T03:52:02.689Z,98547.44
2023-03-25T03:54:47.653Z,98544.00
2023-03-25T03:57:41.756Z,98548.31
2023-03-25T04:01:00.323Z,98546.31
2023-03-25T04:03:39.172Z,98559.38
2023-03-25T04:06:47.991Z,98554.41
2023-03-25T04:09:27.735Z,98557.53
2023-03-25T04:12:06.070Z,98567.56
2023-03-25T04:14:33.647Z,98564.50
2023-03-25T04:17:01.152Z,98565.94
2023-03-25T04:19:28.703Z,98565.25
2023-03-25T04:21:56.070Z,98568.97
2023-03-25T04:24:25.346Z,98574.25
2023-03-25T04:26:53.382Z,98579.59
2023-03-25T04:29:20.392Z,98573.41
2023-03-25T04:31:50.223Z,98578.72
2023-03-25T04:34:17.557Z,98580.53
2023-03-25T04:36:44.614Z,98584.16
2023-03-25T04:39:18.035Z,98580.59
2023-03-25T04:41:45.475Z,98579.34
2023-03-25T04:44:13.045Z,98581.38
2023-03-25T04:46:41.610Z,98572.53
2023-03-25T04:49:19.455Z,98576.69
2023-03-25T04:51:52.647Z,98581.03
2023-03-25T04:54:21.905Z,98570.72
2023-03-25T04:56:51.434Z,98575.41
2023-03-25T04:59:20.085Z,98576.94
2023-03-25T05:01:50.757Z,98576.78
2023-03-25T05:04:19.178Z,98576.78
2023-03-25T05:06:50.848Z,98572.75
2023-03-25T05:09:25.696Z,98577.25
2023-03-25T05:11:54.192Z,98574.41
2023-03-25T05:14:22.636Z,98575.84
2023-03-25T05:16:50.415Z,98578.34
2023-03-25T05:19:24.993Z,98577.41
2023-03-25T05:21:52.613Z,98586.06
2023-03-25T05:24:20.052Z,98585.16
2023-03-25T05:26:47.323Z,98591.69
2023-03-25T05:29:16.346Z,98588.88
2023-03-25T05:31:46.670Z,98582.91
2023-03-25T05:34:15.004Z,98584.84
2023-03-25T05:36:42.125Z,98585.94
2023-03-25T05:39:11.178Z,98577.59
2023-03-25T05:41:41.845Z,98580.22
2023-03-25T05:44:15.122Z,98577.81
2023-03-25T05:46:43.325Z,98589.81
2023-03-25T05:49:10.830Z,98596.66
2023-03-25T05:51:38.890Z,98584.22
2023-03-25T05:54:12.034Z,98590.63
2023-03-25T05:56:40.352Z,98585.56
2023-03-25T05:59:09.605Z,98586.00
2023-03-25T06:01:39.671Z,98586.16
2023-03-25T06:04:10.610Z,98592.06
2023-03-25T06:06:40.467Z,98598.69
2023-03-25T06:09:10.412Z,98599.06
2023-03-25T06:11:41.017Z,98604.00
2023-03-25T06:14:12.457Z,98594.53
2023-03-25T06:16:41.042Z,98606.41
2023-03-25T06:19:10.479Z,98602.81
2023-03-25T06:21:39.149Z,98598.38
2023-03-25T06:24:08.883Z,98601.75
2023-03-25T06:26:36.485Z,98601.09
2023-03-25T06:29:04.953Z,98600.31
2023-03-25T06:31:34.342Z,98588.38
2023-03-25T06:34:02.107Z,98594.06
2023-03-25T06:36:29.836Z,98593.59
2023-03-25T06:38:58.680Z,98585.97
2023-03-25T06:41:28.429Z,98576.69
2023-03-25T06:43:55.732Z,98575.56
2023-03-25T06:46:23.343Z,98575.63
2023-03-25T06:48:50.771Z,98583.50
2023-03-25T06:51:18.225Z,98578.72
2023-03-25T06:53:46.801Z,98580.84
2023-03-25T06:56:14.163Z,98585.09
2023-03-25T06:58:42.250Z,98589.91
2023-03-25T07:01:11.547Z,98582.53
2023-03-25T07:03:39.367Z,98587.31
2023-03-25T07:06:07.476Z,98579.00
2023-03-25T07:08:35.529Z,98569.69
2023-03-25T07:11:06.458Z,98572.31
2023-03-25T07:13:34.550Z,98568.50
2023-03-25T07:16:03.421Z,98576.03
2023-03-25T07:18:31.297Z,98580.19
2023-03-25T07:20:58.582Z,98582.34
2023-03-25T07:23:26.286Z,98572.91
2023-03-25T07:25:53.967Z,98579.81
2023-03-25T07:28:22.281Z,98581.91
2023-03-25T07:30:49.823Z,98588.91
2023-03-25T07:33:17.223Z,98577.97
2023-03-25T07:35:45.784Z,98573.63
2023-03-25T07:38:13.317Z,98582.31
2023-03-25T07:40:40.975Z,98577.84
2023-03-25T07:43:08.286Z,98582.97
2023-03-25T07:45:43.424Z,98577.97
2023-03-25T07:48:14.990Z,98573.50
2023-03-25T07:50:44.064Z,98585.34
2023-03-25T07:53:11.769Z,98585.00
2023-03-25T07:55:38.935Z,98582.25
2023-03-25T07:58:06.280Z,98587.28
2023-03-25T08:00:34.070Z,98594.09
2023-03-25T08:03:02.650Z,98580.47
2023-03-25T08:05:31.799Z,98583.91
2023-03-25T08:08:02.140Z,98584.09
2023-03-25T08:10:36.451Z,98608.72
2023-03-25T08:13:04.967Z,98585.69
2023-03-25T08:15:32.408Z,98583.03
2023-03-25T08:18:07.533Z,98587.31
2023-03-25T08:20:36.095Z,98594.88
2023-03-25T08:23:03.512Z,98578.03
2023-03-25T08:25:32.949Z,98582.38
2023-03-25T08:28:00.479Z,98591.59
2023-03-25T08:30:27.854Z,98583.53
2023-03-25T08:32:55.660Z,98600.38
2023-03-25T08:35:24.783Z,98590.63
2023-03-25T08:37:51.955Z,98592.34
2023-03-25T08:40:20.207Z,98578.16
2023-03-25T08:42:47.839Z,98582.19
2023-03-25T08:45:16.261Z,98572.91
2023-03-25T08:47:49.862Z,98570.25
2023-03-25T08:50:17.305Z,98568.31
2023-03-25T08:52:44.620Z,98583.59
2023-03-25T08:55:12.606Z,98565.25
2023-03-25T08:57:40.062Z,98562.91
2023-03-25T09:00:14.329Z,98557.84
2023-03-25T09:02:44.251Z,98560.59
2023-03-25T09:05:13.832Z,98566.97
2023-03-25T09:07:41.202Z,98565.38
2023-03-25T09:10:10.932Z,98575.97
2023-03-25T09:12:39.733Z,98574.94
2023-03-25T09:15:07.860Z,98580.00
2023-03-25T09:17:35.154Z,98571.38
2023-03-25T09:20:02.679Z,98564.41
2023-03-25T09:22:30.137Z,98572.78
2023-03-25T09:24:58.484Z,98576.88
2023-03-25T09:27:28.223Z,98573.50
2023-03-25T09:29:55.561Z,98574.72
2023-03-25T09:32:22.953Z,98589.06
2023-03-25T09:34:50.404Z,98584.22
2023-03-25T09:37:18.082Z,98567.63
2023-03-25T09:39:45.564Z,98581.00
2023-03-25T09:42:33.484Z,98577.25
2023-03-25T09:45:32.718Z,98586.19
2023-03-25T09:48:28.917Z,98578.41
2023-03-25T09:51:05.649Z,98586.91
2023-03-25T09:53:37.246Z,98582.47
2023-03-25T09:56:08.119Z,98579.09
2023-03-25T09:58:46.109Z,98572.53
2023-03-25T10:01:27.747Z,98579.28
2023-03-25T10:04:29.315Z,98592.78
2023-03-25T10:07:27.756Z,98584.69
2023-03-25T10:10:22.899Z,98582.91
2023-03-25T10:13:31.608Z,98581.19
2023-03-25T10:16:18.883Z,98567.19
2023-03-25T10:19:11.610Z,98575.50
2023-03-25T10:21:54.041Z,98568.75
2023-03-25T10:24:32.887Z,98567.66
2023-03-25T10:26:59.927Z,98571.75
2023-03-25T10:29:41.449Z,98566.09
2023-03-25T10:32:17.658Z,98553.69
2023-03-25T10:34:54.558Z,98557.25
2023-03-25T10:37:34.386Z,98556.66
2023-03-25T10:40:14.807Z,98546.13
2023-03-25T10:43:13.638Z,98548.25
2023-03-25T10:45:43.061Z,98558.00
2023-03-25T10:48:29.614Z,98553.69
2023-03-25T10:51:30.880Z,98548.53
2023-03-25T10:53:58.936Z,98561.91
2023-03-25T10:56:42.777Z,98553.72
2023-03-25T10:59:38.764Z,98544.69
2023-03-25T11:02:29.047Z,98547.13
2023-03-25T11:05:06.834Z,98542.34
2023-03-25T11:07:44.799Z,98529.56
2023-03-25T11:10:21.624Z,98537.72
2023-03-25T11:12:54.386Z,98532.31
2023-03-25T11:15:30.168Z,98546.75
2023-03-25T11:18:08.415Z,98558.88
2023-03-25T11:20:56.980Z,98537.88
2023-03-25T11:23:50.253Z,98523.22
2023-03-25T11:26:24.040Z,98554.88
2023-03-25T11:29:02.800Z,98518.06
2023-03-25T11:31:38.316Z,98526.81
2023-03-25T11:34:11.714Z,98513.09
2023-03-25T11:36:55.451Z,98501.25
2023-03-25T11:39:33.308Z,98505.47
2023-03-25T11:42:11.170Z,98486.09
2023-03-25T11:44:40.122Z,98501.22
2023-03-25T11:47:11.232Z,98496.25
2023-03-25T11:49:41.805Z,98522.06
2023-03-25T11:52:22.738Z,98497.47
2023-03-25T11:54:53.254Z,98486.47
2023-03-25T11:57:27.572Z,98488.97
2023-03-25T12:00:18.611Z,98502.75
2023-03-25T12:02:46.518Z,98486.09
2023-03-25T12:05:17.023Z,98480.38
2023-03-25T12:07:49.360Z,98485.63
2023-03-25T12:10:40.087Z,98484.78
2023-03-25T12:13:32.341Z,98468.50
2023-03-25T12:16:35.970Z,98487.41
2023-03-25T12:19:14.067Z,98493.94
2023-03-25T12:21:59.092Z,98482.44
2023-03-25T12:24:37.065Z,98470.81
2023-03-25T12:27:23.333Z,98454.34
2023-03-25T12:30:12.820Z,98471.72
2023-03-25T12:33:04.517Z,98479.47
2023-03-25T12:35:50.639Z,98467.38
2023-03-25T12:38:33.013Z,98462.03
2023-03-25T12:41:23.538Z,98461.16
2023-03-25T12:44:34.400Z,98455.44
2023-03-25T12:47:14.887Z,98456.16
2023-03-25T12:49:57.494Z,98455.88
2023-03-25T12:53:14.181Z,98455.88
2023-03-25T12:56:14.632Z,98446.78
2023-03-25T12:58:56.311Z,98473.97
2023-03-25T13:01:43.324Z,98463.28
2023-03-25T13:04:35.042Z,98471.44
2023-03-25T13:07:15.077Z,98468.47
2023-03-25T13:10:12.447Z,98476.53
2023-03-25T13:12:50.582Z,98474.09
2023-03-25T13:15:33.052Z,98493.09
2023-03-25T13:18:07.638Z,98464.19
2023-03-25T13:20:42.905Z,98471.00
2023-03-25T13:23:18.074Z,98474.53
2023-03-25T13:25:57.969Z,98479.06
2023-03-25T13:28:47.151Z,98495.19
2023-03-25T13:31:27.906Z,98503.47
2023-03-25T13:34:23.639Z,98505.25
2023-03-25T13:37:03.660Z,98498.91
2023-03-25T13:40:10.974Z,98524.03
2023-03-25T13:42:52.714Z,98504.44
2023-03-25T13:45:22.476Z,98501.56
2023-03-25T13:48:24.019Z,98495.66
2023-03-25T13:50:54.057Z,98496.06
2023-03-25T13:53:49.312Z,98480.06
2023-03-25T13:56:46.862Z,98477.47
2023-03-25T13:59:40.327Z,98481.06
2023-03-25T14:02:40.258Z,98472.41
2023-03-25T14:05:25.834Z,98478.41
2023-03-25T14:08:24.009Z,98467.00
2023-03-25T14:11:03.244Z,98487.94
2023-03-25T14:13:39.029Z,98482.94
2023-03-25T14:16:13.687Z,98476.34
2023-03-25T14:18:53.839Z,98482.38
2023-03-25T14:21:35.356Z,98482.16
2023-03-25T14:24:10.085Z,98490.91
2023-03-25T14:26:43.988Z,98480.44
2023-03-25T14:29:32.668Z,98481.31
2023-03-25T14:32:04.912Z,98481.78
2023-03-25T14:34:32.299Z,98489.59
2023-03-25T14:36:59.947Z,98503.94
2023-03-25T14:39:33.180Z,98489.19
2023-03-25T14:42:13.539Z,98491.59
2023-03-25T14:44:42.778Z,98490.69
2023-03-25T14:47:16.444Z,98503.19
2023-03-25T14:49:55.261Z,98493.47
2023-03-25T14:52:31.313Z,98482.75
2023-03-25T14:55:05.566Z,98480.16
2023-03-25T14:57:41.114Z,98502.28
2023-03-25T15:00:14.202Z,98502.88
2023-03-25T15:02:44.047Z,98495.13
2023-03-25T15:05:19.913Z,98496.72
2023-03-25T15:08:05.230Z,98494.75
2023-03-25T15:10:49.494Z,98513.47
2023-03-25T15:13:35.274Z,98518.81
2023-03-25T15:16:19.848Z,98514.34
2023-03-25T15:18:49.834Z,98536.16
2023-03-25T15:21:18.538Z,98569.56
2023-03-25T15:23:53.473Z,98564.81
2023-03-25T15:26:30.700Z,98576.66
2023-03-25T15:29:20.077Z,98576.22
2023-03-25T15:32:09.178Z,98550.94
2023-03-25T15:34:54.951Z,98544.47
2023-03-25T15:37:47.081Z,98514.78
2023-03-25T15:40:32.377Z,98517.41
2023-03-25T15:43:02.502Z,98528.00
2023-03-25T15:45:56.304Z,98535.78
2023-03-25T15:48:42.667Z,98520.78
2023-03-25T15:51:25.216Z,98509.47
2023-03-25T15:54:25.182Z,98497.88
2023-03-25T15:56:57.630Z,98501.88
2023-03-25T15:59:45.695Z,98495.22
2023-03-25T16:02:28.423Z,98494.41
2023-03-25T16:04:56.155Z,98492.16
2023-03-25T16:07:28.965Z,98502.63
2023-03-25T16:10:09.534Z,98498.34
2023-03-25T16:12:37.030Z,98493.38
2023-03-25T16:15:07.405Z,98503.00
2023-03-25T16:17:35.420Z,98501.44
2023-03-25T16:20:06.400Z,98502.66
2023-03-25T16:22:43.482Z,98499.22
2023-03-25T16:25:17.977Z,98503.75
2023-03-25T16:27:52.026Z,98503.38
2023-03-25T16:30:26.800Z,98506.38
2023-03-25T16:33:12.093Z,98505.94
2023-03-25T16:35:45.999Z,98518.69
2023-03-25T16:38:18.775Z,98521.50
2023-03-25T16:40:49.144Z,98521.19
2023-03-25T16:43:22.466Z,98532.03
2023-03-25T16:45:52.144Z,98530.00
2023-03-25T16:48:29.736Z,98524.13
2023-03-25T16:51:03.210Z,98528.19
2023-03-25T16:53:35.658Z,98527.09
2023-03-25T16:56:31.190Z,98531.09
2023-03-25T16:59:01.262Z,98531.84
2023-03-25T17:01:34.283Z,98533.81
2023-03-25T17:04:19.846Z,98537.53
2023-03-25T17:06:53.296Z,98535.75
2023-03-25T17:09:23.925Z,98536.53
2023-03-25T17:11:57.668Z,98534.41
2023-03-25T17:14:34.009Z,98543.03
2023-03-25T17:17:27.159Z,98546.25
2023-03-25T17:19:56.495Z,98530.94
2023-03-25T17:22:33.041Z,98534.69
2023-03-25T17:25:18.730Z,98493.97
2023-03-25T17:27:48.842Z,98487.81
2023-03-25T17:30:32.906Z,98508.94
2023-03-25T17:33:40.629Z,98505.72
2023-03-25T17:36:13.074Z,98514.41
2023-03-25T17:38:47.732Z,98514.91
2023-03-25T17:41:21.564Z,98513.38
2023-03-25T17:43:54.556Z,98518.84
2023-03-25T17:46:28.786Z,98523.91
2023-03-25T17:48:58.591Z,98514.22
2023-03-25T17:51:31.450Z,98529.03
2023-03-25T17:53:59.858Z,98519.84
2023-03-25T17:56:28.708Z,98524.53
2023-03-25T17:59:08.147Z,98525.03
2023-03-25T18:01:36.582Z,98523.59
2023-03-25T18:04:05.214Z,98520.34
2023-03-25T18:06:32.836Z,98519.03
2023-03-25T18:09:02.922Z,98512.84
2023-03-25T18:11:32.125Z,98518.19
2023-03-25T18:13:59.678Z,98519.81
2023-03-25T18:16:28.161Z,98511.56
2023-03-25T18:19:03.689Z,98516.66
2023-03-25T18:21:32.281Z,98513.84
2023-03-25T18:24:02.567Z,98516.94
2023-03-25T18:26:30.233Z,98515.34
2023-03-25T18:29:02.974Z,98511.19
2023-03-25T18:31:31.041Z,98512.31
2023-03-25T18:33:58.677Z,98515.94
2023-03-25T18:36:27.281Z,98518.28
2023-03-25T18:38:57.187Z,98514.59
2023-03-25T18:41:26.860Z,98514.72
2023-03-25T18:43:58.687Z,98522.72
2023-03-25T18:46:28.132Z,98525.91
2023-03-25T18:49:02.861Z,98528.97
2023-03-25T18:51:32.009Z,98526.19
2023-03-25T18:54:01.145Z,98526.03
2023-03-25T18:56:29.393Z,98535.13
2023-03-25T18:58:58.855Z,98537.53
2023-03-25T19:01:27.308Z,98537.56
2023-03-25T19:04:05.145Z,98538.50
2023-03-25T19:06:34.519Z,98559.75
2023-03-25T19:09:04.650Z,98557.09
2023-03-25T19:11:34.877Z,98551.53
2023-03-25T19:14:04.743Z,98551.28
2023-03-25T19:16:35.410Z,98551.31
2023-03-25T19:19:10.390Z,98554.38
2023-03-25T19:21:42.679Z,98539.59
2023-03-25T19:24:10.995Z,98542.59
2023-03-25T19:26:41.365Z,98555.69
2023-03-25T19:29:10.176Z,98553.78
2023-03-25T19:31:38.963Z,98545.94
2023-03-25T19:34:09.023Z,98560.47
2023-03-25T19:36:37.010Z,98562.03
2023-03-25T19:39:07.875Z,98548.41
2023-03-25T19:41:42.957Z,98546.91
2023-03-25T19:44:14.675Z,98567.16
2023-03-25T19:46:50.630Z,98560.63
2023-03-25T19:49:29.193Z,98571.97
2023-03-25T19:52:07.227Z,98567.44
2023-03-25T19:54:44.554Z,98568.06
2023-03-25T19:57:20.029Z,98573.03
2023-03-25T19:59:48.951Z,98579.16
2023-03-25T20:02:18.252Z,98577.69
2023-03-25T20:04:49.679Z,98573.34
2023-03-25T20:07:17.946Z,98570.09
2023-03-25T20:09:46.258Z,98574.34
2023-03-25T20:12:15.060Z,98566.78
2023-03-25T20:14:50.728Z,98559.69
2023-03-25T20:17:19.181Z,98563.13
2023-03-25T20:19:49.784Z,98568.38
2023-03-25T20:22:24.915Z,98571.97
2023-03-25T20:24:56.829Z,98574.03
2023-03-25T20:27:31.223Z,98562.16
2023-03-25T20:30:06.739Z,98567.97
2023-03-25T20:32:41.222Z,98564.97
2023-03-25T20:35:13.612Z,98566.50
2023-03-25T20:37:43.860Z,98566.06
2023-03-25T20:40:16.829Z,98578.16
2023-03-25T20:42:46.664Z,98582.03
2023-03-25T20:45:17.840Z,98585.13
2023-03-25T20:47:48.563Z,98588.38
2023-03-25T20:50:19.972Z,98598.78
2023-03-25T20:52:48.750Z,98602.22
2023-03-25T20:55:18.263Z,98612.47
2023-03-25T20:57:45.873Z,98605.75
2023-03-25T21:00:15.052Z,98610.75
2023-03-25T21:02:44.821Z,98591.22
2023-03-25T21:05:12.759Z,98608.59
2023-03-25T21:07:41.818Z,98605.50
2023-03-25T21:10:10.483Z,98612.16
2023-03-25T21:12:43.935Z,98598.53
2023-03-25T21:15:15.987Z,98594.34
2023-03-25T21:17:45.836Z,98590.88
2023-03-25T21:20:14.901Z,98587.38
2023-03-25T21:22:44.606Z,98589.56
2023-03-25T21:25:15.255Z,98583.88
2023-03-25T21:27:45.531Z,98608.38
2023-03-25T21:30:16.948Z,98586.47
2023-03-25T21:32:46.439Z,98596.66
2023-03-25T21:35:15.152Z,98585.50
2023-03-25T21:37:42.444Z,98593.44
2023-03-25T21:40:12.373Z,98594.88
2023-03-25T21:42:43.573Z,98590.88
2023-03-25T21:45:16.182Z,98594.56
2023-03-25T21:47:53.583Z,98597.34
2023-03-25T21:50:21.980Z,98590.88
2023-03-25T21:52:49.523Z,98592.72
2023-03-25T21:55:17.824Z,98593.72
2023-03-25T21:57:45.300Z,98588.38
2023-03-25T22:00:17.053Z,98593.88
2023-03-25T22:02:45.740Z,98593.31
2023-03-25T22:05:16.824Z,98588.13
2023-03-25T22:07:45.623Z,98592.47
2023-03-25T22:10:13.194Z,98584.69
2023-03-25T22:12:40.834Z,98583.47
2023-03-25T22:15:09.408Z,98577.13
2023-03-25T22:17:37.666Z,98579.31
2023-03-25T22:20:05.777Z,98580.47
2023-03-25T22:22:33.406Z,98581.66
2023-03-25T22:25:01.225Z,98576.16
2023-03-25T22:27:28.526Z,98574.72
2023-03-25T22:29:55.999Z,98575.44
2023-03-25T22:32:27.258Z,98578.94
2023-03-25T22:34:54.838Z,98579.75
2023-03-25T22:37:22.096Z,98580.50
2023-03-25T22:39:49.204Z,98582.00
2023-03-25T22:42:16.758Z,98580.94
2023-03-25T22:44:44.990Z,98586.19
2023-03-25T22:47:12.460Z,98582.78
2023-03-25T22:49:42.205Z,98581.06
2023-03-25T22:52:09.659Z,98587.41
2023-03-25T22:54:39.281Z,98589.59
2023-03-25T22:57:08.659Z,98588.22
2023-03-25T22:59:36.316Z,98579.63
2023-03-25T23:02:03.681Z,98580.94
2023-03-25T23:04:38.297Z,98585.00
2023-03-25T23:07:08.700Z,98577.38
2023-03-25T23:09:42.188Z,98578.31
2023-03-25T23:12:17.281Z,98586.44
2023-03-25T23:14:54.787Z,98571.34
2023-03-25T23:17:26.185Z,98575.53
2023-03-25T23:19:53.790Z,98569.94
2023-03-25T23:22:21.558Z,98565.84
2023-03-25T23:24:49.090Z,98569.19
2023-03-25T23:27:16.740Z,98566.94
2023-03-25T23:29:43.987Z,98564.06
2023-03-25T23:32:11.702Z,98563.50
2023-03-25T23:34:45.617Z,98560.81
2023-03-25T23:37:12.725Z,98560.94
2023-03-25T23:39:40.728Z,98564.59
2023-03-25T23:42:15.116Z,98560.66
2023-03-25T23:44:45.613Z,98568.38
2023-03-25T23:47:13.088Z,98570.69
2023-03-25T23:49:40.503Z,98563.19
2023-03-25T23:52:11.742Z,98564.97
2023-03-25T23:54:40.291Z,98567.44
2023-03-25T23:57:07.689Z,98564.81
2023-03-25T23:59:37.231Z,98566.38
